sensor_id;sensor_type;location;lat;lon;timestamp;pressure;altitude;pressure_sealevel;temperature;humidity
43071;BME280;36278;47.952;21.714;2022-07-30T17:27:21;99836.66;;;20.44;100.00
43071;BME280;36278;47.952;21.714;2022-07-30T17:29:47;99848.28;;;20.45;100.00
43071;BME280;36278;47.952;21.714;2022-07-30T17:32:12;99850.56;;;20.48;100.00
43071;BME280;36278;47.952;21.714;2022-07-30T17:34:39;99848.28;;;20.45;100.00
43071;BME280;36278;47.952;21.714;2022-07-30T17:37:05;99859.47;;;20.48;100.00
43071;BME280;36278;47.952;21.714;2022-07-30T17:39:31;99865.88;;;20.47;100.00
43071;BME280;36278;47.952;21.714;2022-07-30T17:41:56;99866.31;;;20.51;100.00
43071;BME280;36278;47.952;21.714;2022-07-30T17:44:22;99865.28;;;20.52;100.00
43071;BME280;36278;47.952;21.714;2022-07-30T17:46:47;99867.34;;;20.50;100.00
43071;BME280;36278;47.952;21.714;2022-07-30T17:49:13;99885.34;;;20.49;100.00
43071;BME280;36278;47.952;21.714;2022-07-30T17:51:39;99888.50;;;20.53;100.00
43071;BME280;36278;47.952;21.714;2022-07-30T17:54:05;99888.88;;;20.50;100.00
43071;BME280;36278;47.952;21.714;2022-07-30T17:56:36;99895.47;;;20.47;100.00
43071;BME280;36278;47.952;21.714;2022-07-30T17:59:03;99891.31;;;20.45;100.00
43071;BME280;36278;47.952;21.714;2022-07-30T18:01:30;99893.16;;;20.44;100.00
43071;BME280;36278;47.952;21.714;2022-07-30T18:03:56;99910.28;;;20.43;100.00
43071;BME280;36278;47.952;21.714;2022-07-30T18:06:22;99906.75;;;20.42;100.00
43071;BME280;36278;47.952;21.714;2022-07-30T18:08:47;99904.66;;;20.38;100.00
43071;BME280;36278;47.952;21.714;2022-07-30T18:11:13;99902.78;;;20.38;100.00
43071;BME280;36278;47.952;21.714;2022-07-30T18:13:39;99898.59;;;20.36;100.00
43071;BME280;36278;47.952;21.714;2022-07-30T18:16:04;99898.81;;;20.34;100.00
43071;BME280;36278;47.952;21.714;2022-07-30T18:18:30;99895.47;;;20.32;100.00
43071;BME280;36278;47.952;21.714;2022-07-30T18:20:55;99888.63;;;20.30;100.00
43071;BME280;36278;47.952;21.714;2022-07-30T18:23:21;99884.31;;;20.35;100.00
43071;BME280;36278;47.952;21.714;2022-07-30T18:25:47;99888.31;;;20.39;100.00
43071;BME280;36278;47.952;21.714;2022-07-30T18:28:13;99896.84;;;20.43;100.00
43071;BME280;36278;47.952;21.714;2022-07-30T18:30:39;99905.75;;;20.43;100.00
43071;BME280;36278;47.952;21.714;2022-07-30T18:33:05;99911.97;;;20.44;100.00
43071;BME280;36278;47.952;21.714;2022-07-30T18:35:31;99920.91;;;20.45;100.00
43071;BME280;36278;47.952;21.714;2022-07-30T18:37:56;99913.84;;;20.43;100.00
43071;BME280;36278;47.952;21.714;2022-07-30T18:40:22;99919.38;;;20.42;100.00
43071;BME280;36278;47.952;21.714;2022-07-30T18:42:48;99914.00;;;20.42;100.00
43071;BME280;36278;47.952;21.714;2022-07-30T18:45:16;99927.47;;;20.42;100.00
43071;BME280;36278;47.952;21.714;2022-07-30T18:47:43;99929.31;;;20.41;100.00
43071;BME280;36278;47.952;21.714;2022-07-30T18:50:11;99916.88;;;20.40;100.00
43071;BME280;36278;47.952;21.714;2022-07-30T18:52:38;99928.47;;;20.41;100.00
43071;BME280;36278;47.952;21.714;2022-07-30T18:55:05;99924.59;;;20.43;100.00
43071;BME280;36278;47.952;21.714;2022-07-30T18:57:32;99928.28;;;20.42;100.00
43071;BME280;36278;47.952;21.714;2022-07-30T18:59:57;99934.88;;;20.40;100.00
43071;BME280;36278;47.952;21.714;2022-07-30T19:02:23;99940.06;;;20.41;100.00
43071;BME280;36278;47.952;21.714;2022-07-30T19:04:51;99930.72;;;20.37;100.00
43071;BME280;36278;47.952;21.714;2022-07-30T19:07:18;99947.69;;;20.38;100.00
43071;BME280;36278;47.952;21.714;2022-07-30T19:09:44;99948.44;;;20.32;100.00
43071;BME280;36278;47.952;21.714;2022-07-30T19:12:10;99961.63;;;20.27;100.00
43071;BME280;36278;47.952;21.714;2022-07-30T19:14:37;99960.34;;;20.23;100.00
43071;BME280;36278;47.952;21.714;2022-07-30T19:17:03;99968.75;;;20.20;100.00
43071;BME280;36278;47.952;21.714;2022-07-30T19:19:29;99971.72;;;20.25;100.00
43071;BME280;36278;47.952;21.714;2022-07-30T19:21:55;99964.31;;;20.27;100.00
43071;BME280;36278;47.952;21.714;2022-07-30T19:24:21;99968.22;;;20.24;100.00
43071;BME280;36278;47.952;21.714;2022-07-30T19:26:47;99970.63;;;20.19;100.00
43071;BME280;36278;47.952;21.714;2022-07-30T19:29:13;99979.53;;;20.20;100.00
43071;BME280;36278;47.952;21.714;2022-07-30T19:31:39;99975.84;;;20.21;100.00
43071;BME280;36278;47.952;21.714;2022-07-30T19:34:08;99975.84;;;20.21;100.00
43071;BME280;36278;47.952;21.714;2022-07-30T19:36:35;99979.72;;;20.18;100.00
43071;BME280;36278;47.952;21.714;2022-07-30T19:39:01;99975.34;;;20.17;100.00
43071;BME280;36278;47.952;21.714;2022-07-30T19:41:27;99975.16;;;20.19;100.00
43071;BME280;36278;47.952;21.714;2022-07-30T19:43:53;99981.22;;;20.21;100.00
43071;BME280;36278;47.952;21.714;2022-07-30T19:46:18;99987.03;;;20.24;100.00
43071;BME280;36278;47.952;21.714;2022-07-30T19:48:47;99973.16;;;20.21;100.00
43071;BME280;36278;47.952;21.714;2022-07-30T19:51:12;99973.78;;;20.23;100.00
43071;BME280;36278;47.952;21.714;2022-07-30T19:53:38;99975.84;;;20.21;100.00
43071;BME280;36278;47.952;21.714;2022-07-30T19:56:04;99977.50;;;20.22;100.00
43071;BME280;36278;47.952;21.714;2022-07-30T19:58:30;99971.28;;;20.21;100.00
43071;BME280;36278;47.952;21.714;2022-07-30T20:00:56;99965.91;;;20.21;100.00
43071;BME280;36278;47.952;21.714;2022-07-30T20:03:22;99961.34;;;20.22;100.00
43071;BME280;36278;47.952;21.714;2022-07-30T20:05:48;99968.75;;;20.20;100.00
43071;BME280;36278;47.952;21.714;2022-07-30T20:08:13;99964.59;;;20.17;100.00
43071;BME280;36278;47.952;21.714;2022-07-30T20:10:40;99965.25;;;20.19;100.00
43071;BME280;36278;47.952;21.714;2022-07-30T20:13:06;99968.75;;;20.20;100.00
43071;BME280;36278;47.952;21.714;2022-07-30T20:15:31;99968.31;;;20.16;100.00
43071;BME280;36278;47.952;21.714;2022-07-30T20:17:57;99972.41;;;20.12;100.00
43071;BME280;36278;47.952;21.714;2022-07-30T20:20:22;99967.47;;;20.15;100.00
43071;BME280;36278;47.952;21.714;2022-07-30T20:22:48;99960.06;;;20.17;100.00
43071;BME280;36278;47.952;21.714;2022-07-30T20:25:14;99966.47;;;20.16;100.00
43071;BME280;36278;47.952;21.714;2022-07-30T20:27:39;99951.53;;;20.14;100.00
43071;BME280;36278;47.952;21.714;2022-07-30T20:30:07;99950.91;;;20.12;100.00
43071;BME280;36278;47.952;21.714;2022-07-30T20:32:34;99951.97;;;20.17;100.00
43071;BME280;36278;47.952;21.714;2022-07-30T20:35:01;99953.84;;;20.17;100.00
43071;BME280;36278;47.952;21.714;2022-07-30T20:37:27;99957.00;;;20.21;100.00
43071;BME280;36278;47.952;21.714;2022-07-30T20:39:53;99960.44;;;20.29;100.00
43071;BME280;36278;47.952;21.714;2022-07-30T20:42:19;99952.06;;;20.24;100.00
43071;BME280;36278;47.952;21.714;2022-07-30T20:44:46;99954.13;;;20.22;100.00
43071;BME280;36278;47.952;21.714;2022-07-30T20:47:14;99960.78;;;20.26;100.00
43071;BME280;36278;47.952;21.714;2022-07-30T20:49:45;99949.19;;;20.26;100.00
43071;BME280;36278;47.952;21.714;2022-07-30T20:52:12;99954.38;;;20.27;100.00
43071;BME280;36278;47.952;21.714;2022-07-30T20:54:38;99955.69;;;20.31;100.00
43071;BME280;36278;47.952;21.714;2022-07-30T20:57:07;99946.50;;;20.26;100.00
43071;BME280;36278;47.952;21.714;2022-07-30T20:59:33;99955.78;;;20.23;100.00
43071;BME280;36278;47.952;21.714;2022-07-30T21:02:08;99945.41;;;20.20;100.00
43071;BME280;36278;47.952;21.714;2022-07-30T21:04:35;99943.72;;;20.19;100.00
43071;BME280;36278;47.952;21.714;2022-07-30T21:07:01;99949.28;;;20.17;100.00
43071;BME280;36278;47.952;21.714;2022-07-30T21:09:26;99941.22;;;20.17;100.00
43071;BME280;36278;47.952;21.714;2022-07-30T21:11:55;99940.03;;;20.20;100.00
43071;BME280;36278;47.952;21.714;2022-07-30T21:14:21;99941.75;;;20.28;100.00
43071;BME280;36278;47.952;21.714;2022-07-30T21:16:47;99945.75;;;20.32;100.00
43071;BME280;36278;47.952;21.714;2022-07-30T21:19:13;99940.09;;;20.27;100.00
43071;BME280;36278;47.952;21.714;2022-07-30T21:21:41;99944.09;;;20.31;100.00
43071;BME280;36278;47.952;21.714;2022-07-30T21:24:09;99940.38;;;20.32;100.00
43071;BME280;36278;47.952;21.714;2022-07-30T21:26:36;99927.38;;;20.35;100.00
43071;BME280;36278;47.952;21.714;2022-07-30T21:29:04;99927.75;;;20.32;100.00
43071;BME280;36278;47.952;21.714;2022-07-30T21:31:30;99923.00;;;20.34;100.00
43071;BME280;36278;47.952;21.714;2022-07-30T21:33:56;99920.81;;;20.38;100.00
43071;BME280;36278;47.952;21.714;2022-07-30T21:36:21;99918.09;;;20.38;100.00
43071;BME280;36278;47.952;21.714;2022-07-30T21:38:47;99913.38;;;20.40;100.00
43071;BME280;36278;47.952;21.714;2022-07-30T21:41:12;99915.03;;;20.41;100.00
43071;BME280;36278;47.952;21.714;2022-07-30T21:43:38;99916.53;;;20.43;100.00
43071;BME280;36278;47.952;21.714;2022-07-30T21:46:03;99904.78;;;20.45;100.00
43071;BME280;36278;47.952;21.714;2022-07-30T21:48:29;99907.91;;;20.48;100.00
43071;BME280;36278;47.952;21.714;2022-07-30T21:50:55;99918.47;;;20.50;100.00
43071;BME280;36278;47.952;21.714;2022-07-30T21:53:21;99909.94;;;20.46;100.00
43071;BME280;36278;47.952;21.714;2022-07-30T21:55:47;99910.69;;;20.40;100.00
43071;BME280;36278;47.952;21.714;2022-07-30T21:58:13;99904.09;;;20.28;100.00
43071;BME280;36278;47.952;21.714;2022-07-30T22:03:14;99904.09;;;20.28;100.00
43071;BME280;36278;47.952;21.714;2022-07-30T22:05:40;99897.34;;;20.32;100.00
43071;BME280;36278;47.952;21.714;2022-07-30T22:08:07;99897.88;;;20.27;100.00
43071;BME280;36278;47.952;21.714;2022-07-30T22:10:34;99885.66;;;20.25;100.00
43071;BME280;36278;47.952;21.714;2022-07-30T22:13:00;99893.34;;;20.28;100.00
43071;BME280;36278;47.952;21.714;2022-07-30T22:15:26;99883.06;;;20.31;100.00
43071;BME280;36278;47.952;21.714;2022-07-30T22:17:52;99873.63;;;20.21;100.00
43071;BME280;36278;47.952;21.714;2022-07-30T22:20:17;99879.38;;;20.17;100.00
43071;BME280;36278;47.952;21.714;2022-07-30T22:22:45;99878.72;;;20.15;100.00
43071;BME280;36278;47.952;21.714;2022-07-30T22:25:10;99863.97;;;20.11;100.00
43071;BME280;36278;47.952;21.714;2022-07-30T22:27:37;99864.44;;;20.15;100.00
43071;BME280;36278;47.952;21.714;2022-07-30T22:30:04;99879.84;;;20.21;100.00
43071;BME280;36278;47.952;21.714;2022-07-30T22:32:30;99859.91;;;20.15;100.00
43071;BME280;36278;47.952;21.714;2022-07-30T22:34:56;99860.28;;;20.12;100.00
43071;BME280;36278;47.952;21.714;2022-07-30T22:37:21;99859.63;;;20.10;100.00
43071;BME280;36278;47.952;21.714;2022-07-30T22:39:47;99859.00;;;20.08;100.00
43071;BME280;36278;47.952;21.714;2022-07-30T22:42:12;99850.94;;;20.08;100.00
43071;BME280;36278;47.952;21.714;2022-07-30T22:44:39;99837.66;;;20.07;100.00
43071;BME280;36278;47.952;21.714;2022-07-30T22:47:05;99842.41;;;20.05;100.00
43071;BME280;36278;47.952;21.714;2022-07-30T22:49:30;99839.53;;;20.06;100.00
43071;BME280;36278;47.952;21.714;2022-07-30T22:51:55;99839.13;;;20.09;100.00
43071;BME280;36278;47.952;21.714;2022-07-30T22:54:21;99847.22;;;20.09;100.00
43071;BME280;36278;47.952;21.714;2022-07-30T22:56:47;99837.75;;;20.13;100.00
43071;BME280;36278;47.952;21.714;2022-07-30T22:59:12;99838.38;;;20.15;100.00
43071;BME280;36278;47.952;21.714;2022-07-30T23:01:38;99832.38;;;20.13;100.00
43071;BME280;36278;47.952;21.714;2022-07-30T23:04:03;99819.13;;;20.12;100.00
43071;BME280;36278;47.952;21.714;2022-07-30T23:06:29;99819.97;;;20.12;100.00
43071;BME280;36278;47.952;21.714;2022-07-30T23:08:54;99811.06;;;20.12;100.00
43071;BME280;36278;47.952;21.714;2022-07-30T23:11:20;99819.69;;;20.07;100.00
43071;BME280;36278;47.952;21.714;2022-07-30T23:13:45;99821.97;;;20.10;100.00
43071;BME280;36278;47.952;21.714;2022-07-30T23:16:11;99826.53;;;20.10;100.00
43071;BME280;36278;47.952;21.714;2022-07-30T23:18:37;99831.06;;;20.09;100.00
43071;BME280;36278;47.952;21.714;2022-07-30T23:21:02;99833.22;;;20.14;100.00
43071;BME280;36278;47.952;21.714;2022-07-30T23:23:30;99835.06;;;20.13;100.00
43071;BME280;36278;47.952;21.714;2022-07-30T23:25:56;99830.88;;;20.11;100.00
43071;BME280;36278;47.952;21.714;2022-07-30T23:28:22;99827.19;;;20.12;100.00
43071;BME280;36278;47.952;21.714;2022-07-30T23:30:48;99833.00;;;20.15;100.00
43071;BME280;36278;47.952;21.714;2022-07-30T23:33:17;99833.00;;;20.15;100.00
43071;BME280;36278;47.952;21.714;2022-07-30T23:35:43;99836.97;;;20.20;100.00
43071;BME280;36278;47.952;21.714;2022-07-30T23:38:09;99831.22;;;20.23;100.00
43071;BME280;36278;47.952;21.714;2022-07-30T23:40:34;99831.47;;;20.28;100.00
43071;BME280;36278;47.952;21.714;2022-07-30T23:43:00;99832.50;;;20.27;100.00
43071;BME280;36278;47.952;21.714;2022-07-30T23:45:25;99834.38;;;20.26;100.00
43071;BME280;36278;47.952;21.714;2022-07-30T23:47:51;99835.66;;;20.30;100.00
43071;BME280;36278;47.952;21.714;2022-07-30T23:50:17;99834.44;;;20.33;100.00
43071;BME280;36278;47.952;21.714;2022-07-30T23:52:43;99835.28;;;20.33;100.00
43071;BME280;36278;47.952;21.714;2022-07-30T23:55:09;99841.47;;;20.34;100.00
43071;BME280;36278;47.952;21.714;2022-07-30T23:57:36;99832.59;;;20.33;100.00
